createdAt,value
2022-08-25T07:40:17.951Z,25.82
2022-08-25T07:42:50.104Z,25.97
2022-08-25T07:45:21.541Z,25.93
2022-08-25T07:47:53.869Z,26.02
2022-08-25T07:50:24.816Z,26.04
2022-08-25T07:52:54.888Z,26.11
2022-08-25T07:55:28.728Z,26.14
2022-08-25T07:58:00.724Z,26.19
2022-08-25T08:00:33.433Z,26.20
2022-08-25T08:03:08.191Z,26.40
2022-08-25T08:05:42.631Z,26.45
2022-08-25T08:08:13.120Z,26.52
2022-08-25T08:13:39.304Z,26.69
2022-08-25T08:16:13.393Z,26.70
2022-08-25T08:18:44.090Z,26.74
2022-08-25T08:21:19.022Z,26.86
2022-08-25T08:23:55.427Z,26.92
2022-08-25T08:26:55.390Z,26.99
2022-08-25T08:29:22.548Z,27.02
2022-08-25T08:31:53.398Z,27.04
2022-08-25T08:34:24.988Z,27.13
2022-08-25T08:36:55.240Z,27.16
2022-08-25T08:39:25.728Z,27.12
2022-08-25T08:42:19.494Z,27.39
2022-08-25T08:45:09.662Z,27.42
2022-08-25T08:47:56.174Z,27.36
2022-08-25T08:50:33.902Z,27.38
2022-08-25T08:53:10.041Z,27.38
2022-08-25T08:55:43.951Z,27.38
2022-08-25T08:58:20.965Z,27.35
2022-08-25T09:00:59.417Z,27.31
2022-08-25T09:03:36.779Z,27.32
2022-08-25T09:06:13.387Z,27.46
2022-08-25T09:08:45.086Z,27.27
2022-08-25T09:11:26.571Z,27.26
2022-08-25T09:14:13.559Z,27.56
2022-08-25T09:16:57.133Z,27.56
2022-08-25T09:19:48.378Z,27.68
2022-08-25T09:22:35.413Z,27.80
2022-08-25T09:25:18.718Z,27.91
2022-08-25T09:28:05.934Z,27.95
2022-08-25T09:30:45.588Z,27.92
2022-08-25T09:33:21.438Z,27.77
2022-08-25T09:35:53.851Z,27.69
2022-08-25T09:38:24.809Z,27.85
2022-08-25T09:41:00.899Z,27.96
2022-08-25T09:43:33.265Z,28.04
2022-08-25T09:46:11.724Z,27.95
2022-08-25T09:48:48.377Z,27.99
2022-08-25T09:51:28.465Z,27.90
2022-08-25T09:54:10.654Z,28.19
2022-08-25T09:56:50.590Z,28.33
2022-08-25T09:59:34.734Z,28.25
2022-08-25T10:02:26.435Z,28.13
2022-08-25T10:04:57.947Z,28.04
2022-08-25T10:07:32.286Z,28.08
2022-08-25T10:10:07.645Z,27.91
2022-08-25T10:12:43.180Z,27.98
2022-08-25T10:15:29.580Z,28.09
2022-08-25T10:18:25.879Z,28.16
2022-08-25T10:21:04.582Z,28.17
2022-08-25T10:23:41.197Z,28.08
2022-08-25T10:26:21.137Z,27.93
2022-08-25T10:29:12.619Z,28.03
2022-08-25T10:31:49.223Z,28.31
2022-08-25T10:34:36.050Z,28.38
2022-08-25T10:37:15.807Z,28.33
2022-08-25T10:39:54.899Z,28.26
2022-08-25T10:42:35.170Z,28.22
2022-08-25T10:45:35.856Z,28.20
2022-08-25T10:48:39.137Z,28.29
2022-08-25T10:51:25.751Z,28.36
2022-08-25T10:54:07.038Z,28.37
2022-08-25T10:56:41.511Z,28.41
2022-08-25T10:59:31.661Z,28.35
2022-08-25T11:02:20.440Z,28.44
2022-08-25T11:05:00.381Z,28.30
2022-08-25T11:07:36.803Z,28.18
2022-08-25T11:10:11.851Z,28.38
2022-08-25T11:12:46.465Z,28.49
2022-08-25T11:15:24.156Z,28.65
2022-08-25T11:17:58.651Z,28.57
2022-08-25T11:20:34.604Z,28.73
2022-08-25T11:23:14.770Z,28.73
2022-08-25T11:25:48.640Z,28.69
2022-08-25T11:28:25.037Z,28.53
2022-08-25T11:30:59.547Z,28.79
2022-08-25T11:33:31.877Z,28.74
2022-08-25T11:36:07.001Z,28.72
2022-08-25T11:38:57.670Z,28.92
2022-08-25T11:41:37.673Z,29.25
2022-08-25T11:44:20.488Z,29.25
2022-08-25T11:47:21.278Z,29.33
2022-08-25T11:49:56.851Z,29.34
2022-08-25T11:52:56.063Z,29.00
2022-08-25T11:55:46.761Z,28.52
2022-08-25T11:58:42.978Z,28.73
2022-08-25T12:01:52.183Z,28.71
2022-08-25T12:04:44.887Z,28.74
2022-08-25T12:07:30.911Z,28.96
2022-08-25T12:10:20.961Z,28.93
2022-08-25T12:13:28.194Z,28.80
2022-08-25T12:16:02.559Z,28.84
2022-08-25T12:18:45.895Z,28.70
2022-08-25T12:21:31.719Z,28.89
2022-08-25T12:24:12.068Z,28.98
2022-08-25T12:26:50.218Z,28.99
2022-08-25T12:29:29.309Z,28.94
2022-08-25T12:32:14.256Z,28.88
2022-08-25T12:35:03.096Z,28.93
2022-08-25T12:37:35.492Z,28.86
2022-08-25T12:40:08.116Z,28.74
2022-08-25T12:42:40.872Z,28.65
2022-08-25T12:45:31.010Z,28.54
2022-08-25T12:48:40.569Z,28.59
2022-08-25T12:51:20.090Z,28.63
2022-08-25T12:53:55.105Z,28.66
2022-08-25T12:56:32.608Z,28.87
2022-08-25T12:59:15.854Z,28.97
2022-08-25T13:02:09.191Z,28.96
2022-08-25T13:05:14.915Z,29.35
2022-08-25T13:07:59.833Z,29.48
2022-08-25T13:10:49.297Z,29.31
2022-08-25T13:13:34.915Z,29.51
2022-08-25T13:16:09.028Z,29.55
2022-08-25T13:18:41.518Z,29.47
2022-08-25T13:21:17.853Z,29.39
2022-08-25T13:23:51.004Z,29.48
2022-08-25T13:26:29.117Z,29.60
2022-08-25T13:29:03.543Z,29.61
2022-08-25T13:31:39.944Z,29.39
2022-08-25T13:34:21.886Z,29.32
2022-08-25T13:37:09.377Z,29.60
2022-08-25T13:39:55.317Z,29.27
2022-08-25T13:42:28.949Z,29.14
2022-08-25T13:44:59.575Z,29.06
2022-08-25T13:47:44.994Z,29.11
2022-08-25T13:50:20.279Z,29.31
2022-08-25T13:52:54.306Z,29.34
2022-08-25T13:55:29.904Z,29.24
2022-08-25T13:58:16.983Z,29.36
2022-08-25T14:01:23.484Z,29.40
2022-08-25T14:04:19.529Z,29.49
2022-08-25T14:06:50.509Z,29.58
2022-08-25T14:09:28.217Z,29.65
2022-08-25T14:11:59.634Z,29.36
2022-08-25T14:14:36.084Z,29.47
2022-08-25T14:17:22.139Z,29.26
2022-08-25T14:20:00.360Z,29.28
2022-08-25T14:22:30.366Z,29.26
2022-08-25T14:25:00.664Z,29.24
2022-08-25T14:27:31.001Z,29.27
2022-08-25T14:30:03.925Z,29.38
2022-08-25T14:32:34.100Z,29.22
2022-08-25T14:35:09.876Z,29.41
2022-08-25T14:37:40.130Z,29.41
2022-08-25T14:40:14.161Z,29.31
2022-08-25T14:42:45.090Z,29.21
2022-08-25T14:45:17.872Z,28.88
2022-08-25T14:47:49.631Z,28.74
2022-08-25T14:50:21.323Z,28.59
2022-08-25T14:52:52.166Z,28.26
2022-08-25T14:55:31.622Z,27.83
2022-08-25T14:58:02.205Z,27.38
2022-08-25T15:00:33.951Z,26.89
2022-08-25T15:03:05.065Z,25.74
2022-08-25T15:05:35.334Z,25.19
2022-08-25T15:08:23.261Z,24.57
2022-08-25T15:10:53.281Z,24.22
2022-08-25T15:13:24.567Z,23.93
2022-08-25T15:15:58.043Z,23.67
2022-08-25T15:18:28.423Z,23.64
2022-08-25T15:20:58.516Z,23.40
2022-08-25T15:23:28.587Z,23.04
2022-08-25T15:25:59.274Z,23.39
2022-08-25T15:28:29.271Z,23.22
2022-08-25T15:31:02.849Z,23.09
2022-08-25T15:33:33.496Z,22.85
2022-08-25T15:36:04.004Z,22.80
2022-08-25T15:38:35.207Z,22.74
2022-08-25T15:41:05.507Z,22.66
2022-08-25T15:43:37.374Z,22.66
2022-08-25T15:46:09.115Z,22.46
2022-08-25T15:48:39.140Z,22.46
2022-08-25T15:51:09.540Z,22.46
2022-08-25T15:53:39.833Z,22.55
2022-08-25T15:56:09.899Z,22.23
2022-08-25T15:58:40.256Z,22.09
2022-08-25T16:01:23.741Z,22.07
2022-08-25T16:03:55.261Z,21.84
2022-08-25T16:06:26.095Z,22.08
2022-08-25T16:08:56.213Z,22.06
2022-08-25T16:11:28.021Z,22.04
2022-08-25T16:14:00.669Z,22.05
2022-08-25T16:16:33.339Z,22.02
2022-08-25T16:19:04.801Z,22.08
2022-08-25T16:21:42.207Z,22.10
2022-08-25T16:24:17.447Z,22.08
2022-08-25T16:26:48.529Z,22.03
2022-08-25T16:29:19.080Z,21.88
2022-08-25T16:31:53.276Z,21.64
2022-08-25T16:34:28.702Z,21.81
2022-08-25T16:37:01.058Z,21.73
2022-08-25T16:39:31.250Z,21.77
2022-08-25T16:42:01.235Z,21.79
2022-08-25T16:44:31.537Z,21.73
2022-08-25T16:47:02.996Z,21.84
2022-08-25T16:49:33.177Z,21.79
2022-08-25T16:52:24.267Z,21.72
2022-08-25T16:55:13.157Z,21.77
2022-08-25T16:57:46.021Z,21.62
2022-08-25T17:00:21.785Z,21.73
2022-08-25T17:02:59.272Z,21.64
2022-08-25T17:05:30.289Z,21.72
2022-08-25T17:08:18.829Z,21.72
2022-08-25T17:10:49.068Z,21.65
2022-08-25T17:13:19.635Z,21.71
2022-08-25T17:15:52.286Z,21.72
2022-08-25T17:18:24.120Z,21.73
2022-08-25T17:21:01.290Z,21.73
2022-08-25T17:23:35.359Z,21.62
2022-08-25T17:26:06.763Z,21.73
2022-08-25T17:28:44.287Z,21.75
2022-08-25T17:31:21.163Z,21.78
2022-08-25T17:33:53.425Z,21.74
2022-08-25T17:36:26.970Z,21.69
2022-08-25T17:38:57.536Z,21.67
2022-08-25T17:41:28.114Z,21.61
2022-08-25T17:43:58.770Z,21.63
2022-08-25T17:46:29.880Z,21.65
2022-08-25T17:49:01.306Z,21.56
2022-08-25T17:51:31.610Z,21.70
2022-08-25T17:54:02.295Z,21.68
2022-08-25T17:56:33.510Z,21.67
2022-08-25T17:59:03.487Z,21.59
2022-08-25T18:01:40.612Z,21.59
2022-08-25T18:04:16.982Z,21.66
2022-08-25T18:06:48.445Z,21.60
2022-08-25T18:09:19.480Z,21.61
2022-08-25T18:11:50.058Z,21.64
2022-08-25T18:14:25.246Z,21.48
2022-08-25T18:16:56.726Z,21.65
2022-08-25T18:19:28.072Z,21.72
2022-08-25T18:21:58.280Z,21.84
2022-08-25T18:24:29.080Z,21.81
2022-08-25T18:26:59.376Z,21.84
2022-08-25T18:29:29.786Z,21.89
2022-08-25T18:32:05.533Z,21.93
2022-08-25T18:34:38.012Z,21.96
2022-08-25T18:37:21.816Z,21.96
2022-08-25T18:40:11.222Z,21.97
2022-08-25T18:42:41.399Z,22.03
2022-08-25T18:45:12.598Z,22.04
2022-08-25T18:47:42.808Z,22.05
2022-08-25T18:50:14.639Z,21.97
2022-08-25T18:52:44.642Z,21.94
2022-08-25T18:55:15.188Z,21.93
2022-08-25T18:57:45.362Z,21.88
2022-08-25T19:00:18.763Z,21.91
2022-08-25T19:02:50.337Z,21.96
2022-08-25T19:05:25.632Z,21.94
2022-08-25T19:07:56.178Z,21.58
2022-08-25T19:10:26.269Z,21.89
2022-08-25T19:12:58.062Z,21.89
2022-08-25T19:15:33.457Z,21.79
2022-08-25T19:18:09.784Z,21.88
2022-08-25T19:20:43.531Z,21.85
2022-08-25T19:23:13.603Z,21.95
2022-08-25T19:25:44.207Z,21.95
2022-08-25T19:28:16.583Z,21.90
2022-08-25T19:30:50.700Z,21.87
2022-08-25T19:33:43.897Z,21.84
2022-08-25T19:36:12.656Z,21.86
2022-08-25T19:38:44.166Z,21.67
2022-08-25T19:41:15.077Z,21.82
2022-08-25T19:43:50.468Z,21.82
2022-08-25T19:46:32.672Z,21.89
2022-08-25T19:49:08.832Z,21.85
2022-08-25T19:51:44.525Z,21.89
2022-08-25T19:54:16.944Z,21.87
2022-08-25T19:56:54.529Z,21.74
2022-08-25T19:59:34.429Z,21.86
2022-08-25T20:02:16.287Z,21.84
2022-08-25T20:04:49.203Z,21.90
2022-08-25T20:07:24.308Z,21.94
2022-08-25T20:09:56.022Z,21.95
2022-08-25T20:12:27.951Z,21.85
2022-08-25T20:14:58.669Z,21.91
2022-08-25T20:17:28.953Z,21.97
2022-08-25T20:20:04.692Z,21.95
2022-08-25T20:22:36.856Z,21.93
2022-08-25T20:25:13.429Z,21.94
2022-08-25T20:27:47.401Z,21.97
2022-08-25T20:30:22.389Z,21.91
2022-08-25T20:32:54.488Z,21.76
2022-08-25T20:35:26.382Z,21.96
2022-08-25T20:38:00.396Z,21.91
2022-08-25T20:40:31.417Z,21.88
2022-08-25T20:43:03.340Z,21.87
2022-08-25T20:45:33.427Z,21.91
2022-08-25T20:48:03.638Z,21.84
2022-08-25T20:50:34.796Z,21.85
2022-08-25T20:53:10.281Z,21.94
2022-08-25T20:55:44.336Z,21.90
2022-08-25T20:58:15.200Z,21.87
2022-08-25T21:00:45.889Z,21.81
2022-08-25T21:03:15.965Z,21.92
2022-08-25T21:05:46.605Z,21.99
2022-08-25T21:08:17.913Z,21.98
2022-08-25T21:10:48.366Z,21.94
2022-08-25T21:13:18.939Z,21.91
2022-08-25T21:15:49.942Z,22.00
2022-08-25T21:18:19.848Z,22.06
2022-08-25T21:20:49.809Z,21.97
2022-08-25T21:23:21.052Z,21.96
2022-08-25T21:25:51.696Z,21.97
2022-08-25T21:28:21.720Z,22.02
2022-08-25T21:30:52.145Z,21.98
2022-08-25T21:33:28.213Z,21.94
2022-08-25T21:35:58.588Z,21.99
2022-08-25T21:38:30.290Z,21.96
2022-08-25T21:41:00.792Z,22.01
2022-08-25T21:43:30.704Z,21.96
2022-08-25T21:46:00.663Z,22.01
2022-08-25T21:48:30.776Z,22.11
2022-08-25T21:51:07.933Z,22.16
2022-08-25T21:53:43.925Z,22.25
2022-08-25T21:56:16.331Z,22.17
2022-08-25T21:58:49.080Z,22.32
2022-08-25T22:01:21.107Z,22.36
2022-08-25T22:03:52.716Z,22.41
2022-08-25T22:06:24.270Z,22.39
2022-08-25T22:08:56.118Z,22.39
2022-08-25T22:11:28.239Z,22.42
2022-08-25T22:14:02.635Z,22.43
2022-08-25T22:16:33.866Z,22.39
2022-08-25T22:19:04.638Z,22.38
2022-08-25T22:21:36.792Z,22.38
2022-08-25T22:24:10.404Z,22.15
2022-08-25T22:26:40.950Z,22.41
2022-08-25T22:29:10.900Z,22.38
2022-08-25T22:31:41.411Z,22.38
2022-08-25T22:34:12.011Z,22.36
2022-08-25T22:36:42.054Z,22.35
2022-08-25T22:39:15.502Z,22.36
2022-08-25T22:41:46.672Z,22.40
2022-08-25T22:44:16.543Z,22.36
2022-08-25T22:46:48.401Z,22.31
2022-08-25T22:49:18.748Z,22.39
2022-08-25T22:51:48.935Z,22.35
2022-08-25T22:54:20.354Z,22.34
2022-08-25T22:56:50.195Z,22.29
2022-08-25T22:59:20.574Z,22.29
2022-08-25T23:01:54.707Z,22.26
2022-08-25T23:04:25.235Z,22.27
2022-08-25T23:06:55.280Z,22.31
2022-08-25T23:09:28.098Z,22.33
2022-08-25T23:12:02.016Z,22.25
2022-08-25T23:14:35.598Z,22.25
2022-08-25T23:17:07.296Z,22.25
2022-08-25T23:19:37.921Z,22.22
2022-08-25T23:22:10.437Z,22.25
2022-08-25T23:24:44.397Z,22.23
2022-08-25T23:27:17.176Z,22.24
2022-08-25T23:29:50.874Z,22.24
2022-08-25T23:32:20.848Z,22.27
2022-08-25T23:34:50.930Z,22.27
2022-08-25T23:37:20.868Z,22.33
2022-08-25T23:39:52.302Z,22.33
2022-08-25T23:42:22.544Z,22.28
2022-08-25T23:44:52.839Z,22.32
2022-08-25T23:47:22.848Z,22.31
2022-08-25T23:49:53.431Z,22.33
2022-08-25T23:52:23.950Z,22.33
2022-08-25T23:54:56.200Z,22.33
2022-08-25T23:57:26.289Z,22.32
2022-08-25T23:59:56.330Z,22.33
